Time;durP1;ratioP1;P1;durP2;ratioP2;P2;SDS_P1;SDS_P2;PMS_P1;PMS_P2;Temp;Humidity;BMP_temperature;BMP_pressure;BME280_temperature;BME280_humidity;BME280_pressure;Samples;Min_cycle;Max_cycle;Signal;HPM_P1;HPM_P2
2023/10/17 00:02:49;;;;;;;493.60;200.03;;;;;;;;;;4961386;28;23677;-50
2023/10/17 00:05:15;;;;;;;464.37;179.80;;;;;;;;;;4951023;28;20202;-52
2023/10/17 00:07:46;;;;;;;471.10;189.40;;;;;;;;;;4940568;28;20246;-50
2023/10/17 00:10:14;;;;;;;431.47;166.73;;;;;;;;;;4945939;28;20214;-50
2023/10/17 00:12:44;;;;;;;474.40;190.20;;;;;;;;;;4948668;28;20435;-52
2023/10/17 00:15:35;;;;;;;503.37;205.20;;;;;;;;;;4944069;28;20222;-50
2023/10/17 00:18:03;;;;;;;478.57;194.23;;;;;;;;;;4957216;28;20716;-51
2023/10/17 00:20:37;;;;;;;423.33;160.97;;;;;;;;;;4957105;28;20221;-51
2023/10/17 00:23:04;;;;;;;449.77;175.40;;;;;;;;;;4944050;28;20197;-52
2023/10/17 00:25:30;;;;;;;437.83;169.53;;;;;;;;;;4948481;28;20343;-51
2023/10/17 00:27:57;;;;;;;463.10;181.40;;;;;;;;;;4946059;28;20508;-51
2023/10/17 00:30:23;;;;;;;536.93;228.43;;;;;;;;;;4950821;28;20205;-51
2023/10/17 00:32:52;;;;;;;425.50;169.77;;;;;;;;;;4953856;28;20218;-51
2023/10/17 00:35:19;;;;;;;426.93;167.70;;;;;;;;;;4947013;28;20186;-52
2023/10/17 00:37:53;;;;;;;457.07;186.67;;;;;;;;;;4947826;28;20198;-51
2023/10/17 00:40:34;;;;;;;436.97;166.27;;;;;;;;;;4945416;28;20590;-52
2023/10/17 00:43:04;;;;;;;482.77;196.33;;;;;;;;;;4935876;28;20190;-50
2023/10/17 00:45:32;;;;;;;427.33;162.57;;;;;;;;;;4953686;28;20196;-51
2023/10/17 00:47:59;;;;;;;423.60;160.00;;;;;;;;;;4952129;28;20680;-50
2023/10/17 00:50:26;;;;;;;457.93;187.13;;;;;;;;;;4953495;28;20634;-51
2023/10/17 00:52:52;;;;;;;453.60;185.27;;;;;;;;;;4953612;28;20213;-51
2023/10/17 00:55:18;;;;;;;413.40;159.43;;;;;;;;;;4953410;28;20421;-50
2023/10/17 00:57:47;;;;;;;442.03;178.70;;;;;;;;;;4952954;28;20182;-51
2023/10/17 01:00:23;;;;;;;492.17;201.40;;;;;;;;;;4951558;28;20633;-51
2023/10/17 01:02:51;;;;;;;437.07;170.57;;;;;;;;;;4952082;28;20228;-53
2023/10/17 01:05:17;;;;;;;418.70;162.47;;;;;;;;;;4953622;28;20205;-51
2023/10/17 01:07:43;;;;;;;461.57;186.73;;;;;;;;;;4944558;28;20241;-51
2023/10/17 01:10:13;;;;;;;430.40;166.27;;;;;;;;;;4956254;28;20221;-52
2023/10/17 01:13:13;;;;;;;438.53;170.57;;;;;;;;;;4946591;28;20275;-51
2023/10/17 01:15:32;;;;;;;466.23;184.47;;;;;;;;;;4947514;28;20192;-52
2023/10/17 01:18:04;;;;;;;465.13;184.40;;;;;;;;;;4951369;28;20182;-51
2023/10/17 01:20:30;;;;;;;459.50;180.17;;;;;;;;;;4943753;28;20209;-51
2023/10/17 01:22:56;;;;;;;446.70;176.43;;;;;;;;;;4944797;28;20210;-52
2023/10/17 01:25:26;;;;;;;442.23;172.03;;;;;;;;;;4960715;28;20193;-52
2023/10/17 01:27:52;;;;;;;446.37;177.37;;;;;;;;;;4958349;28;20193;-51
2023/10/17 01:30:18;;;;;;;476.43;193.10;;;;;;;;;;4954407;28;20209;-51
2023/10/17 01:32:46;;;;;;;464.07;183.07;;;;;;;;;;4964858;28;20201;-51
2023/10/17 01:35:12;;;;;;;448.13;171.60;;;;;;;;;;4958716;28;20332;-52
2023/10/17 01:37:40;;;;;;;440.30;167.30;;;;;;;;;;4961313;28;20272;-52
2023/10/17 01:40:10;;;;;;;470.30;192.47;;;;;;;;;;4954486;28;20416;-52
2023/10/17 01:42:38;;;;;;;472.70;187.50;;;;;;;;;;4961087;28;20205;-52
2023/10/17 01:45:10;;;;;;;416.43;160.27;;;;;;;;;;4949212;28;21426;-50
2023/10/17 01:47:36;;;;;;;429.87;161.40;;;;;;;;;;4959998;28;20194;-52
2023/10/17 01:50:04;;;;;;;512.03;209.80;;;;;;;;;;4959275;28;20518;-52
2023/10/17 01:52:31;;;;;;;411.43;158.80;;;;;;;;;;4952941;28;20244;-52
2023/10/17 01:54:59;;;;;;;460.10;185.00;;;;;;;;;;4961539;28;20182;-52
2023/10/17 01:57:27;;;;;;;567.93;248.10;;;;;;;;;;4955111;28;20213;-51
2023/10/17 01:59:53;;;;;;;532.17;227.83;;;;;;;;;;4955830;28;20222;-53
2023/10/17 02:02:23;;;;;;;462.30;178.53;;;;;;;;;;4955964;28;20213;-51
2023/10/17 02:04:50;;;;;;;433.23;173.57;;;;;;;;;;4945684;28;20208;-52
2023/10/17 02:07:16;;;;;;;437.77;167.40;;;;;;;;;;4958904;28;20289;-51
2023/10/17 02:12:08;;;;;;;439.50;171.13;;;;;;;;;;4951912;28;20190;-51
2023/10/17 02:14:34;;;;;;;439.03;167.33;;;;;;;;;;4957090;28;20188;-53
2023/10/17 02:17:00;;;;;;;442.57;175.20;;;;;;;;;;4966152;28;20216;-51
2023/10/17 02:19:26;;;;;;;464.67;185.17;;;;;;;;;;4955420;28;20245;-51
2023/10/17 02:21:54;;;;;;;468.30;194.47;;;;;;;;;;4962280;28;20191;-52
2023/10/17 02:24:21;;;;;;;409.03;156.67;;;;;;;;;;4959279;28;20463;-52
2023/10/17 02:26:58;;;;;;;402.20;152.27;;;;;;;;;;4954750;28;20197;-51
2023/10/17 02:29:25;;;;;;;453.33;178.93;;;;;;;;;;4961248;28;20268;-51
2023/10/17 02:31:52;;;;;;;438.17;168.77;;;;;;;;;;4960096;28;20229;-52
2023/10/17 02:34:22;;;;;;;439.40;168.33;;;;;;;;;;4956652;28;20217;-51
2023/10/17 02:36:49;;;;;;;418.43;158.83;;;;;;;;;;4957092;28;20185;-51
2023/10/17 02:39:15;;;;;;;487.50;199.13;;;;;;;;;;4957211;28;20201;-52
2023/10/17 02:41:45;;;;;;;440.87;170.13;;;;;;;;;;4954722;28;20266;-51
2023/10/17 02:44:14;;;;;;;483.17;195.60;;;;;;;;;;4950127;28;20594;-52
2023/10/17 02:46:41;;;;;;;442.40;173.90;;;;;;;;;;4957282;28;20190;-52
2023/10/17 02:49:07;;;;;;;554.60;246.90;;;;;;;;;;4952731;28;20225;-51
2023/10/17 02:51:33;;;;;;;417.67;159.47;;;;;;;;;;4949557;28;20289;-52
2023/10/17 02:54:05;;;;;;;492.77;211.33;;;;;;;;;;4954002;28;20237;-51
2023/10/17 02:56:38;;;;;;;443.17;171.70;;;;;;;;;;4952928;28;20238;-52
2023/10/17 02:59:09;;;;;;;500.63;207.10;;;;;;;;;;4948637;28;20211;-51
2023/10/17 03:01:36;;;;;;;445.37;174.00;;;;;;;;;;4952296;28;20669;-52
2023/10/17 03:04:24;;;;;;;484.67;203.23;;;;;;;;;;4945780;28;20526;-51
2023/10/17 03:06:49;;;;;;;429.63;169.07;;;;;;;;;;4950440;28;20260;-52
2023/10/17 03:11:50;;;;;;;446.17;169.37;;;;;;;;;;4952074;28;20194;-52
2023/10/17 03:14:22;;;;;;;449.97;179.23;;;;;;;;;;4946899;28;20232;-51
2023/10/17 03:16:52;;;;;;;448.07;172.10;;;;;;;;;;4956033;28;20194;-52
2023/10/17 03:19:25;;;;;;;459.30;181.60;;;;;;;;;;4952401;28;20298;-51
2023/10/17 03:21:53;;;;;;;461.27;185.93;;;;;;;;;;4953806;28;20264;-51
2023/10/17 03:24:19;;;;;;;450.73;181.77;;;;;;;;;;4950887;28;20553;-51
2023/10/17 03:26:55;;;;;;;430.10;166.20;;;;;;;;;;4953394;28;20614;-51
2023/10/17 03:29:24;;;;;;;440.23;172.57;;;;;;;;;;4950381;28;20212;-52
2023/10/17 03:31:58;;;;;;;470.50;185.20;;;;;;;;;;4949181;28;20337;-51
2023/10/17 03:34:35;;;;;;;417.27;159.40;;;;;;;;;;4946505;28;20196;-52
2023/10/17 03:39:52;;;;;;;448.07;173.80;;;;;;;;;;4954399;28;20373;-51
2023/10/17 03:45:13;;;;;;;461.93;182.47;;;;;;;;;;4955305;28;20217;-50
2023/10/17 03:47:44;;;;;;;422.13;162.63;;;;;;;;;;4954898;28;20194;-52
2023/10/17 03:50:10;;;;;;;523.43;222.77;;;;;;;;;;4952293;28;20206;-52
2023/10/17 03:52:36;;;;;;;492.33;202.10;;;;;;;;;;4957918;28;20358;-51
2023/10/17 03:55:07;;;;;;;474.27;194.57;;;;;;;;;;4949175;28;20198;-51
2023/10/17 03:57:39;;;;;;;470.73;184.47;;;;;;;;;;4958208;28;20185;-52
2023/10/17 04:00:25;;;;;;;433.23;174.10;;;;;;;;;;4946288;28;20198;-52
2023/10/17 04:02:51;;;;;;;447.70;174.57;;;;;;;;;;4955590;28;20640;-51
2023/10/17 04:05:18;;;;;;;488.27;199.43;;;;;;;;;;4951697;28;20602;-51
2023/10/17 04:07:51;;;;;;;421.07;160.97;;;;;;;;;;4956812;28;20664;-52
2023/10/17 04:10:21;;;;;;;447.47;178.80;;;;;;;;;;4949719;28;20238;-52
2023/10/17 04:15:32;;;;;;;430.93;164.93;;;;;;;;;;4948178;28;20292;-52
2023/10/17 04:18:02;;;;;;;497.37;202.37;;;;;;;;;;4950021;28;20276;-51
2023/10/17 04:20:36;;;;;;;424.20;163.30;;;;;;;;;;5008376;22;20224;-73
2023/10/17 04:23:02;;;;;;;476.77;182.70;;;;;;;;;;4992595;28;20210;-75
2023/10/17 04:28:00;;;;;;;436.07;163.90;;;;;;;;;;4993159;28;20307;-74
2023/10/17 04:30:46;;;;;;;448.10;167.50;;;;;;;;;;4979075;28;20299;-74
2023/10/17 04:33:19;;;;;;;463.47;182.70;;;;;;;;;;4988899;28;20216;-74
2023/10/17 04:35:53;;;;;;;431.87;157.13;;;;;;;;;;4987722;28;20188;-74
2023/10/17 04:38:19;;;;;;;438.47;166.03;;;;;;;;;;4984413;28;20182;-74
2023/10/17 04:44:04;;;;;;;445.70;169.10;;;;;;;;;;4989670;28;20208;-74
2023/10/17 04:46:30;;;;;;;463.40;175.33;;;;;;;;;;4986735;28;20275;-74
2023/10/17 04:49:07;;;;;;;403.80;152.43;;;;;;;;;;4983394;28;20839;-74
2023/10/17 04:51:38;;;;;;;434.13;167.33;;;;;;;;;;4995560;28;20541;-74
2023/10/17 04:54:20;;;;;;;481.70;184.97;;;;;;;;;;4983742;28;20275;-74
2023/10/17 04:57:05;;;;;;;431.73;162.50;;;;;;;;;;4988375;28;20181;-74
2023/10/17 05:05:39;;;;;;;443.63;165.87;;;;;;;;;;4988402;28;20197;-75
2023/10/17 06:18:51;;;;;;;361.63;147.20;;;;;;;;;;4988693;28;20217;-45
2023/10/17 06:21:36;;;;;;;397.93;164.07;;;;;;;;;;4988828;28;20170;-45
2023/10/17 06:26:47;;;;;;;381.07;152.60;;;;;;;;;;4989802;28;20247;-46
2023/10/17 06:34:31;;;;;;;395.23;160.67;;;;;;;;;;4987804;28;20217;-44
2023/10/17 06:37:07;;;;;;;380.17;151.80;;;;;;;;;;4989751;28;20639;-44
2023/10/17 06:39:36;;;;;;;390.40;155.00;;;;;;;;;;4988763;28;20201;-46
2023/10/17 06:42:14;;;;;;;387.17;154.63;;;;;;;;;;4989117;28;20181;-46
2023/10/17 06:44:51;;;;;;;401.60;157.83;;;;;;;;;;4989151;28;20188;-46
2023/10/17 06:47:18;;;;;;;381.13;152.80;;;;;;;;;;4989949;28;20204;-47
2023/10/17 06:54:51;;;;;;;375.20;150.73;;;;;;;;;;4989362;28;20174;-46
2023/10/17 06:57:20;;;;;;;383.50;151.73;;;;;;;;;;4990037;28;20212;-46
2023/10/17 06:59:52;;;;;;;372.23;148.73;;;;;;;;;;4990070;28;20744;-46
2023/10/17 07:02:19;;;;;;;390.70;153.77;;;;;;;;;;4970156;28;20310;-46
2023/10/17 07:04:50;;;;;;;381.23;151.20;;;;;;;;;;4975002;28;20189;-46
2023/10/17 07:07:18;;;;;;;390.00;159.70;;;;;;;;;;4996056;28;20536;-46
2023/10/17 07:09:52;;;;;;;392.07;157.80;;;;;;;;;;5009004;28;20284;-46
2023/10/17 07:12:19;;;;;;;384.07;154.10;;;;;;;;;;5007904;28;20165;-46
2023/10/17 07:14:48;;;;;;;390.47;161.83;;;;;;;;;;5009265;28;20724;-47
2023/10/17 07:17:26;;;;;;;394.20;158.50;;;;;;;;;;5008970;28;20173;-46
2023/10/17 07:20:12;;;;;;;379.47;151.63;;;;;;;;;;4998959;28;20584;-46
2023/10/17 07:22:41;;;;;;;381.60;158.83;;;;;;;;;;4997581;28;20281;-46
2023/10/17 07:25:19;;;;;;;384.37;154.50;;;;;;;;;;4988160;28;20248;-46
2023/10/17 07:27:46;;;;;;;390.10;159.73;;;;;;;;;;4988152;28;20154;-47
2023/10/17 07:30:27;;;;;;;375.63;152.60;;;;;;;;;;4994603;28;20755;-46
2023/10/17 07:32:56;;;;;;;378.87;153.13;;;;;;;;;;4987945;28;20333;-47
2023/10/17 07:35:25;;;;;;;386.03;158.40;;;;;;;;;;4989320;28;20213;-47
2023/10/17 07:37:54;;;;;;;390.50;155.77;;;;;;;;;;4989351;28;20174;-46
2023/10/17 07:43:07;;;;;;;380.13;155.93;;;;;;;;;;4980750;28;20670;-46
2023/10/17 07:45:42;;;;;;;386.83;156.17;;;;;;;;;;4994145;28;20727;-46
2023/10/17 07:48:20;;;;;;;404.77;165.77;;;;;;;;;;4993213;28;20507;-47
2023/10/17 07:50:50;;;;;;;386.63;154.27;;;;;;;;;;5002524;28;20511;-46
2023/10/17 07:53:19;;;;;;;386.00;156.17;;;;;;;;;;4988686;28;20271;-46
2023/10/17 07:55:48;;;;;;;387.30;157.20;;;;;;;;;;4995095;28;20173;-46
2023/10/17 07:58:17;;;;;;;394.63;161.23;;;;;;;;;;4986524;28;20609;-47
2023/10/17 08:00:43;;;;;;;402.40;165.70;;;;;;;;;;4969623;28;20202;-46
2023/10/17 08:03:14;;;;;;;386.43;158.33;;;;;;;;;;4969230;28;20179;-46
2023/10/17 08:06:05;;;;;;;394.87;162.47;;;;;;;;;;4990825;28;20182;-46
2023/10/17 08:08:34;;;;;;;400.07;163.40;;;;;;;;;;4970860;28;20629;-46
2023/10/17 08:11:19;;;;;;;397.87;161.03;;;;;;;;;;4995210;28;20177;-46
2023/10/17 08:13:45;;;;;;;399.43;161.67;;;;;;;;;;4988144;28;20276;-46
2023/10/17 08:16:32;;;;;;;403.27;163.70;;;;;;;;;;4987065;28;20178;-46
2023/10/17 08:19:13;;;;;;;397.33;163.33;;;;;;;;;;4986655;28;20201;-46
2023/10/17 08:29:57;;;;;;;415.67;170.83;;;;;;;;;;4987006;28;20672;-46
2023/10/17 08:34:58;;;;;;;401.83;168.77;;;;;;;;;;4985389;28;20181;-46
2023/10/17 08:37:32;;;;;;;397.20;167.60;;;;;;;;;;4986786;28;20177;-46
2023/10/17 08:39:58;;;;;;;409.00;169.13;;;;;;;;;;4987476;28;20190;-46
2023/10/17 08:44:56;;;;;;;391.97;163.80;;;8.80;1.00;;;;;;4988103;28;20352;-46
2023/10/17 08:47:25;;;;;;;398.13;164.73;;;8.80;1.00;;;;;;4987989;28;20178;-46
2023/10/17 08:49:54;;;;;;;392.53;163.57;;;9.00;1.00;;;;;;4987686;28;20200;-46
2023/10/17 08:52:27;;;;;;;403.77;166.47;;;8.90;1.00;;;;;;4968176;28;20198;-46
2023/10/17 08:54:53;;;;;;;393.73;163.80;;;9.10;1.00;;;;;;4968245;28;20251;-46
2023/10/17 08:57:19;;;;;;;388.87;161.20;;;9.10;1.00;;;;;;4968199;28;20640;-46
2023/10/17 09:00:13;;;;;;;405.33;167.23;;;8.40;1.00;;;;;;4968173;28;20589;-46
2023/10/17 09:02:32;;;;;;;397.47;167.30;;;9.20;1.00;;;;;;4967972;28;20223;-46
2023/10/17 09:05:18;;;;;;;392.40;163.07;;;9.30;1.00;;;;;;4968679;28;20652;-46
2023/10/17 09:07:49;;;;;;;400.37;166.10;;;9.40;1.00;;;;;;4968305;28;20652;-46
2023/10/17 09:10:20;;;;;;;409.10;167.47;;;9.60;1.00;;;;;;4983527;28;20319;-46
2023/10/17 09:15:48;;;;;;;391.10;161.63;;;9.70;99.90;;;;;;4987507;28;20185;-46
2023/10/17 09:18:14;;;;;;;412.23;172.40;;;9.60;99.90;;;;;;4987397;28;20513;-47
2023/10/17 09:20:39;;;;;;;408.80;172.93;;;9.80;1.00;;;;;;4986840;28;20186;-46
2023/10/17 09:23:26;;;;;;;416.63;172.33;;;9.70;1.00;;;;;;4987190;28;20182;-47
2023/10/17 09:26:00;;;;;;;396.07;167.80;;;9.70;1.00;;;;;;4987145;28;20166;-46
2023/10/17 09:28:28;;;;;;;413.17;171.43;;;9.80;1.00;;;;;;4986968;28;20611;-46
2023/10/17 09:31:06;;;;;;;408.03;170.33;;;9.80;99.90;;;;;;4987157;28;20345;-47
2023/10/17 09:33:33;;;;;;;417.70;181.37;;;9.70;99.90;;;;;;4985935;28;20193;-46
2023/10/17 09:36:06;;;;;;;408.63;172.73;;;9.70;99.90;;;;;;4986935;28;20186;-47
2023/10/17 09:38:33;;;;;;;403.57;170.80;;;9.90;1.00;;;;;;4986186;28;20162;-47
2023/10/17 09:40:59;;;;;;;406.67;172.00;;;10.00;1.00;;;;;;4986823;28;20208;-46
2023/10/17 09:43:25;;;;;;;386.40;160.93;;;10.10;14.00;;;;;;4986799;28;20673;-47
2023/10/17 09:45:52;;;;;;;421.93;177.13;;;10.20;99.90;;;;;;4987962;28;20177;-46
2023/10/17 09:48:25;;;;;;;417.97;175.77;;;10.30;1.00;;;;;;4989942;28;20213;-46
2023/10/17 09:50:56;;;;;;;402.40;172.17;;;10.40;1.00;;;;;;4990391;28;20514;-47
2023/10/17 09:53:28;;;;;;;404.33;169.03;;;10.50;64.10;;;;;;4988916;28;20209;-46
2023/10/17 09:55:57;;;;;;;411.20;175.17;;;10.70;1.00;;;;;;4990364;28;20489;-46
2023/10/17 09:58:29;;;;;;;413.07;182.20;;;10.80;1.00;;;;;;4990131;28;20178;-46
2023/10/17 10:01:06;;;;;;;416.17;180.73;;;10.90;1.00;;;;;;4988904;28;20162;-47
2023/10/17 10:03:35;;;;;;;408.60;176.87;;;11.70;1.00;;;;;;4990305;28;20231;-47
2023/10/17 10:06:25;;;;;;;416.33;179.17;;;11.20;99.90;;;;;;4990329;28;20189;-46
2023/10/17 10:09:13;;;;;;;415.70;174.17;;;11.40;99.90;;;;;;4989725;28;20235;-46
2023/10/17 10:11:48;;;;;;;423.33;184.67;;;10.80;88.10;;;;;;4989438;28;20190;-47
2023/10/17 10:14:35;;;;;;;406.97;173.93;;;11.30;1.00;;;;;;4987756;28;20240;-46
2023/10/17 10:17:04;;;;;;;417.97;177.73;;;11.50;99.90;;;;;;4990094;28;20260;-47
2023/10/17 10:19:42;;;;;;;477.50;203.73;;;11.70;99.90;;;;;;5010177;22;20257;-75
2023/10/17 10:22:10;;;;;;;435.57;179.40;;;;;;;;;;5006862;28;20279;-74
2023/10/17 10:24:36;;;;;;;473.57;203.57;;;;;;;;;;5002404;28;20188;-71
2023/10/17 10:27:15;;;;;;;440.90;186.27;;;;;;;;;;5013053;28;20246;-75
2023/10/17 10:29:41;;;;;;;418.73;170.83;;;;;;;;;;5011451;28;20207;-75
2023/10/17 10:32:28;;;;;;;468.53;204.13;;;;;;;;;;5007111;28;20196;-75
2023/10/17 10:34:54;;;;;;;440.70;182.10;;;;;;;;;;5002643;28;20308;-76
2023/10/17 10:37:23;;;;;;;463.87;189.10;;;;;;;;;;5005323;28;20228;-73
2023/10/17 10:40:16;;;;;;;459.27;195.43;;;;;;;;;;5006912;28;20366;-80
2023/10/17 10:42:47;;;;;;;435.73;179.30;;;;;;;;;;5010803;28;20686;-79
2023/10/17 10:45:24;;;;;;;434.90;176.20;;;;;;;;;;5019363;28;20906;-81
2023/10/17 10:47:57;;;;;;;428.90;175.47;;;;;;;;;;5009880;28;20728;-80
2023/10/17 10:50:24;;;;;;;458.73;191.57;;;;;;;;;;4997076;28;20176;-77
2023/10/17 10:52:50;;;;;;;463.87;192.87;;;;;;;;;;5016355;28;20204;-77
2023/10/17 10:55:17;;;;;;;486.63;205.47;;;;;;;;;;5009239;28;20196;-78
2023/10/17 10:57:46;;;;;;;434.63;175.80;;;;;;;;;;5012108;28;20196;-77
2023/10/17 11:00:15;;;;;;;489.27;205.47;;;;;;;;;;4994110;28;20184;-78
2023/10/17 11:02:42;;;;;;;440.83;184.37;;;;;;;;;;4995778;28;20663;-78
2023/10/17 11:05:10;;;;;;;444.33;184.57;;;;;;;;;;5014862;28;20815;-79
2023/10/17 11:07:36;;;;;;;476.93;201.10;;;;;;;;;;5007914;28;20254;-78
2023/10/17 11:10:06;;;;;;;449.00;185.87;;;;;;;;;;5015236;28;20314;-78
2023/10/17 11:12:36;;;;;;;494.60;212.40;;;;;;;;;;5013275;28;20201;-78
2023/10/17 11:15:08;;;;;;;451.10;185.93;;;;;;;;;;5012821;28;20488;-79
2023/10/17 11:17:34;;;;;;;510.83;222.53;;;;;;;;;;5006916;28;20738;-78
2023/10/17 11:20:00;;;;;;;446.63;186.50;;;;;;;;;;5009693;28;20189;-76
2023/10/17 11:22:28;;;;;;;497.03;216.40;;;;;;;;;;4998170;28;20258;-76
2023/10/17 11:24:55;;;;;;;430.03;171.00;;;;;;;;;;4999973;28;20185;-76
2023/10/17 11:27:23;;;;;;;462.13;194.00;;;;;;;;;;4999108;28;20207;-76
2023/10/17 11:29:51;;;;;;;491.70;208.30;;;;;;;;;;5009705;28;20275;-75
2023/10/17 11:32:17;;;;;;;441.93;181.20;;;;;;;;;;5006654;28;20189;-75
2023/10/17 11:34:48;;;;;;;423.87;171.23;;;;;;;;;;5008332;28;20176;-76
2023/10/17 11:37:19;;;;;;;444.03;181.20;;;;;;;;;;5006214;28;20188;-75
2023/10/17 11:39:50;;;;;;;422.50;169.23;;;;;;;;;;5010185;28;20180;-75
2023/10/17 11:42:33;;;;;;;455.87;180.07;;;;;;;;;;5011002;28;20204;-74
2023/10/17 11:44:59;;;;;;;444.47;178.43;;;;;;;;;;5007600;28;20173;-76
2023/10/17 11:47:29;;;;;;;463.57;191.70;;;;;;;;;;5005775;28;20187;-75
2023/10/17 11:49:55;;;;;;;445.37;184.43;;;;;;;;;;5011539;28;20273;-75
2023/10/17 11:52:22;;;;;;;457.37;185.63;;;;;;;;;;5008956;28;20268;-76
2023/10/17 11:55:03;;;;;;;444.40;174.87;;;;;;;;;;5011114;28;20175;-76
2023/10/17 11:57:31;;;;;;;528.77;221.07;;;;;;;;;;5012031;28;20216;-77
2023/10/17 12:00:06;;;;;;;430.60;172.27;;;;;;;;;;5012943;28;20181;-77
2023/10/17 12:02:32;;;;;;;501.27;211.73;;;;;;;;;;5007158;28;20632;-77
2023/10/17 12:05:00;;;;;;;474.70;200.43;;;;;;;;;;5009516;28;20176;-77
2023/10/17 12:07:26;;;;;;;455.50;180.23;;;;;;;;;;5014451;28;20270;-76
2023/10/17 12:09:53;;;;;;;487.13;199.33;;;;;;;;;;5006118;28;20272;-76
2023/10/17 12:12:19;;;;;;;496.10;205.60;;;;;;;;;;5009010;28;20273;-76
2023/10/17 12:14:47;;;;;;;466.83;191.30;;;;;;;;;;5007558;28;20598;-76
2023/10/17 12:17:18;;;;;;;435.10;172.03;;;;;;;;;;5014883;28;20173;-76
2023/10/17 12:19:44;;;;;;;437.87;175.23;;;;;;;;;;5005142;28;20288;-75
2023/10/17 12:22:10;;;;;;;423.87;166.03;;;;;;;;;;5008843;28;20189;-75
2023/10/17 12:24:36;;;;;;;500.63;211.83;;;;;;;;;;5002250;28;20186;-73
2023/10/17 12:27:02;;;;;;;477.80;191.63;;;;;;;;;;5011239;28;20575;-74
2023/10/17 12:29:29;;;;;;;483.23;193.60;;;;;;;;;;5008147;28;20180;-74
2023/10/17 12:31:55;;;;;;;421.37;165.83;;;;;;;;;;5008389;28;20287;-73
2023/10/17 12:34:21;;;;;;;444.50;176.07;;;;;;;;;;5003450;28;20538;-75
2023/10/17 12:36:48;;;;;;;462.13;185.73;;;;;;;;;;5008016;28;20278;-74
2023/10/17 12:39:16;;;;;;;453.43;180.20;;;;;;;;;;5004073;28;20188;-74
2023/10/17 12:41:42;;;;;;;457.57;184.13;;;;;;;;;;5011231;28;20588;-75
2023/10/17 12:44:09;;;;;;;462.97;190.07;;;;;;;;;;5007925;28;20212;-74
2023/10/17 12:46:35;;;;;;;477.67;196.90;;;;;;;;;;5007355;28;20189;-75
2023/10/17 12:49:01;;;;;;;439.57;172.17;;;;;;;;;;5005612;28;20649;-74
2023/10/17 12:51:27;;;;;;;454.90;180.47;;;;;;;;;;5007838;28;20211;-74
2023/10/17 12:53:54;;;;;;;429.43;171.73;;;;;;;;;;5012681;28;20243;-74
2023/10/17 12:56:20;;;;;;;445.50;176.97;;;;;;;;;;5011898;28;20185;-74
2023/10/17 12:58:46;;;;;;;442.53;186.13;;;;;;;;;;5006008;28;20188;-74
2023/10/17 13:01:12;;;;;;;457.47;189.37;;;;;;;;;;5008963;28;20182;-74
2023/10/17 13:03:38;;;;;;;453.37;185.87;;;;;;;;;;5005082;28;20251;-75
2023/10/17 13:06:05;;;;;;;471.47;196.97;;;;;;;;;;5002378;28;20191;-73
2023/10/17 13:08:31;;;;;;;474.97;195.70;;;;;;;;;;5005500;28;20189;-74
2023/10/17 13:10:57;;;;;;;421.07;168.23;;;;;;;;;;5026192;28;20189;-74
2023/10/17 13:13:24;;;;;;;451.20;179.77;;;;;;;;;;5008662;28;20204;-74
2023/10/17 13:15:50;;;;;;;425.47;178.03;;;;;;;;;;5006454;28;20653;-75
2023/10/17 13:18:16;;;;;;;452.20;194.23;;;;;;;;;;5002259;28;20180;-79
2023/10/17 13:20:48;;;;;;;458.53;192.83;;;;;;;;;;5003881;28;20262;-78
2023/10/17 13:23:16;;;;;;;412.70;170.23;;;;;;;;;;5009871;28;21198;-79
2023/10/17 13:25:42;;;;;;;460.53;190.47;;;;;;;;;;5016404;28;20195;-78
2023/10/17 13:28:08;;;;;;;383.37;164.30;;;;;;;;;;5010173;28;20180;-78
2023/10/17 13:30:34;;;;;;;367.73;157.33;;;;;;;;;;5022269;28;20180;-78
2023/10/17 13:33:00;;;;;;;350.53;147.13;;;;;;;;;;5012903;28;20578;-78
2023/10/17 13:35:27;;;;;;;366.03;155.30;;;;;;;;;;5019409;28;20176;-78
2023/10/17 13:37:54;;;;;;;563.13;253.90;;;;;;;;;;5017775;28;21086;-79
2023/10/17 13:40:22;;;;;;;394.50;163.37;;;;;;;;;;5011084;28;20191;-79
2023/10/17 13:42:50;;;;;;;400.73;164.07;;;;;;;;;;5012846;28;20281;-80
2023/10/17 13:45:16;;;;;;;500.80;220.50;;;;;;;;;;5009324;28;20320;-79
2023/10/17 13:47:42;;;;;;;492.10;214.83;;;;;;;;;;5008467;28;20671;-79
2023/10/17 13:50:13;;;;;;;475.70;211.00;;;;;;;;;;5005124;28;20557;-79
2023/10/17 13:52:41;;;;;;;464.40;201.50;;;;;;;;;;5010011;28;20196;-80
2023/10/17 13:55:09;;;;;;;475.13;200.03;;;;;;;;;;5010983;28;20193;-77
2023/10/17 13:57:35;;;;;;;454.97;195.80;;;;;;;;;;5007282;28;20277;-75
2023/10/17 14:00:01;;;;;;;419.90;171.13;;;;;;;;;;5011603;28;20191;-79
2023/10/17 14:02:27;;;;;;;442.57;188.60;;;;;;;;;;5010647;28;20204;-79
2023/10/17 14:04:53;;;;;;;423.73;174.07;;;;;;;;;;5017107;28;20189;-79
2023/10/17 14:07:18;;;;;;;434.30;185.60;;;;;;;;;;5011446;28;20173;-79
2023/10/17 14:09:45;;;;;;;433.90;181.87;;;;;;;;;;5037844;28;20195;-79
2023/10/17 14:12:11;;;;;;;431.77;182.07;;;;;;;;;;5020115;28;20188;-78
2023/10/17 14:14:37;;;;;;;432.50;179.13;;;;;;;;;;5010162;28;20217;-81
2023/10/17 14:17:03;;;;;;;420.17;173.80;;;;;;;;;;5015684;28;20195;-81
2023/10/17 14:22:08;;;;;;;449.97;192.70;;;;;;;;;;5019655;28;20204;-82
2023/10/17 14:25:00;;;;;;;431.50;180.20;;;;;;;;;;5019373;28;20208;-81
2023/10/17 14:27:29;;;;;;;464.90;201.20;;;;;;;;;;5018612;28;20518;-81
2023/10/17 14:30:00;;;;;;;407.47;166.10;;;;;;;;;;5019487;28;20193;-83
2023/10/17 14:32:26;;;;;;;494.00;221.83;;;;;;;;;;5016240;28;20256;-81
2023/10/17 14:34:52;;;;;;;427.67;182.23;;;;;;;;;;5012909;28;20197;-82
2023/10/17 14:37:20;;;;;;;481.60;214.40;;;;;;;;;;5016737;28;20180;-81
2023/10/17 14:39:46;;;;;;;434.13;188.90;;;;;;;;;;5017406;28;20154;-82
2023/10/17 14:42:17;;;;;;;498.90;226.80;;;;;;;;;;5014840;28;20204;-83
2023/10/17 14:44:45;;;;;;;500.77;239.77;;;;;;;;;;5017067;28;20193;-88
2023/10/17 14:47:11;;;;;;;479.03;223.10;;;;;;;;;;5012264;28;20192;-86
2023/10/17 14:49:37;;;;;;;509.00;248.27;;;;;;;;;;5010225;28;20180;-87
2023/10/17 14:52:03;;;;;;;463.07;221.67;;;;;;;;;;5011763;28;20192;-86
2023/10/17 14:54:31;;;;;;;446.83;206.53;;;;;;;;;;5011549;28;20287;-86
2023/10/17 14:57:01;;;;;;;508.87;243.07;;;;;;;;;;5016781;28;20200;-85
2023/10/17 14:59:28;;;;;;;463.10;213.10;;;;;;;;;;5016855;28;20195;-88
2023/10/17 15:01:57;;;;;;;453.83;211.60;;;;;;;;;;5013476;28;20180;-87
2023/10/17 15:04:23;;;;;;;471.87;213.97;;;;;;;;;;5014890;28;21292;-84
2023/10/17 15:06:53;;;;;;;487.77;220.53;;;;;;;;;;5017838;28;20204;-88
2023/10/17 15:09:21;;;;;;;473.67;213.00;;;;;;;;;;5013096;28;20710;-85
2023/10/17 15:11:47;;;;;;;497.77;227.67;;;;;;;;;;5013527;28;20181;-85
2023/10/17 15:14:14;;;;;;;464.03;203.47;;;;;;;;;;5012893;28;20255;-84
2023/10/17 15:16:41;;;;;;;461.43;202.20;;;;;;;;;;5020298;28;20188;-86
2023/10/17 15:19:07;;;;;;;436.60;189.20;;;;;;;;;;5009408;28;20629;-86
2023/10/17 15:21:34;;;;;;;458.77;201.00;;;;;;;;;;5015504;28;20276;-85
2023/10/17 15:24:00;;;;;;;422.20;178.37;;;;;;;;;;5012929;28;20231;-87
2023/10/17 15:26:26;;;;;;;433.63;180.83;;;;;;;;;;5014999;28;20674;-85
2023/10/17 15:28:53;;;;;;;508.97;220.53;;;;;;;;;;5007328;28;20310;-85
2023/10/17 15:31:20;;;;;;;485.40;209.87;;;;;;;;;;5006935;28;20193;-85
2023/10/17 15:33:46;;;;;;;469.10;199.43;;;;;;;;;;5010033;28;20300;-86
2023/10/17 15:36:12;;;;;;;445.63;185.27;;;;;;;;;;5016560;28;20187;-84
2023/10/17 15:38:42;;;;;;;495.30;216.60;;;;;;;;;;5009471;28;20180;-85
2023/10/17 15:41:09;;;;;;;438.07;181.50;;;;;;;;;;5010376;28;20214;-82
2023/10/17 15:43:35;;;;;;;441.57;183.83;;;;;;;;;;5014337;28;20204;-86
2023/10/17 15:46:01;;;;;;;489.23;208.50;;;;;;;;;;5012028;28;20283;-82
2023/10/17 15:48:27;;;;;;;459.73;187.30;;;;;;;;;;5009210;28;20267;-80
2023/10/17 15:50:55;;;;;;;446.90;182.03;;;;;;;;;;5010860;28;20278;-81
2023/10/17 15:53:21;;;;;;;465.80;181.70;;;;;;;;;;5011590;28;20247;-78
2023/10/17 15:55:52;;;;;;;506.43;212.53;;;;;;;;;;5011517;28;20177;-83
2023/10/17 15:58:19;;;;;;;436.33;173.43;;;;;;;;;;5009691;28;20275;-79
2023/10/17 16:00:46;;;;;;;491.67;200.67;;;;;;;;;;5017091;28;20184;-79
2023/10/17 16:03:15;;;;;;;446.57;175.77;;;;;;;;;;4999720;28;20243;-81
2023/10/17 16:05:41;;;;;;;479.20;198.53;;;;;;;;;;5007329;28;20196;-81
2023/10/17 16:08:08;;;;;;;444.57;172.40;;;;;;;;;;5013167;28;20192;-79